createdAt,value
2017-12-22T00:00:29.755Z,102392.47
2017-12-22T00:02:58.140Z,102393.83
2017-12-22T00:05:26.496Z,102381.80
2017-12-22T00:07:54.871Z,102382.59
2017-12-22T00:10:23.244Z,102376.84
2017-12-22T00:12:51.624Z,102383.52
2017-12-22T00:15:19.959Z,102377.37
2017-12-22T00:17:48.355Z,102377.70
2017-12-22T00:20:17.483Z,102381.12
2017-12-22T00:22:45.911Z,102380.79
2017-12-22T00:25:14.283Z,102374.48
2017-12-22T00:27:42.623Z,102378.57
2017-12-22T00:30:11.072Z,102373.24
2017-12-22T00:32:39.531Z,102377.14
2017-12-22T00:35:07.908Z,102378.70
2017-12-22T00:37:36.271Z,102388.66
2017-12-22T00:40:04.619Z,102383.38
2017-12-22T00:42:33.000Z,102381.23
2017-12-22T00:45:01.356Z,102380.77
2017-12-22T00:47:29.696Z,102381.57
2017-12-22T00:49:58.116Z,102388.66
2017-12-22T00:52:26.443Z,102379.48
2017-12-22T00:54:54.823Z,102377.61
2017-12-22T00:57:23.163Z,102379.97
2017-12-22T00:59:51.500Z,102381.15
2017-12-22T01:02:20.659Z,102381.59
2017-12-22T01:04:49.003Z,102388.31
2017-12-22T01:07:17.379Z,102392.31
2017-12-22T01:09:46.907Z,102394.14
2017-12-22T01:12:15.288Z,102388.91
2017-12-22T01:14:43.618Z,102396.05
2017-12-22T01:20:17.235Z,102388.14
2017-12-22T01:22:46.364Z,102381.92
2017-12-22T01:25:14.687Z,102374.51
2017-12-22T01:27:43.059Z,102375.83
2017-12-22T01:30:11.435Z,102376.45
2017-12-22T01:32:39.795Z,102366.19
2017-12-22T01:35:08.142Z,102357.73
2017-12-22T01:37:36.510Z,102360.11
2017-12-22T01:40:04.859Z,102358.11
2017-12-22T01:42:33.235Z,102362.61
2017-12-22T01:45:01.607Z,102354.71
2017-12-22T01:47:29.957Z,102353.75
2017-12-22T01:49:58.331Z,102349.55
2017-12-22T01:52:26.691Z,102346.62
2017-12-22T01:54:55.074Z,102342.64
2017-12-22T01:57:23.402Z,102342.02
2017-12-22T01:59:51.787Z,102339.70
2017-12-22T02:02:20.118Z,102340.78
2017-12-22T02:04:48.443Z,102333.05
2017-12-22T02:07:16.814Z,102338.02
2017-12-22T02:09:45.150Z,102339.05
2017-12-22T02:12:13.478Z,102341.34
2017-12-22T02:14:42.603Z,102338.63
2017-12-22T02:17:10.951Z,102331.07
2017-12-22T02:19:39.318Z,102334.48
2017-12-22T02:22:07.646Z,102319.80
2017-12-22T02:24:36.026Z,102321.90
2017-12-22T02:27:04.402Z,102322.81
2017-12-22T02:29:32.740Z,102326.48
2017-12-22T02:32:01.871Z,102320.36
2017-12-22T02:34:30.198Z,102326.25
2017-12-22T02:36:58.575Z,102327.54
2017-12-22T02:39:26.954Z,102326.00
2017-12-22T02:41:55.290Z,102327.09
2017-12-22T02:44:23.654Z,102323.55
2017-12-22T02:46:52.067Z,102320.97
2017-12-22T02:49:20.415Z,102305.88
2017-12-22T02:51:48.790Z,102328.69
2017-12-22T02:54:17.190Z,102326.94
2017-12-22T02:56:46.303Z,102321.25
2017-12-22T02:59:17.528Z,102315.44
2017-12-22T03:01:45.902Z,102320.58
2017-12-22T03:04:14.237Z,102325.58
2017-12-22T03:06:43.393Z,102326.95
2017-12-22T03:09:11.722Z,102322.25
2017-12-22T03:11:40.822Z,102314.28
2017-12-22T03:14:09.950Z,102306.80
2017-12-22T03:16:38.297Z,102311.59
2017-12-22T03:19:06.705Z,102304.11
2017-12-22T03:21:35.066Z,102303.15
2017-12-22T03:24:03.437Z,102304.13
2017-12-22T03:26:31.802Z,102310.59
2017-12-22T03:29:00.910Z,102307.66
2017-12-22T03:31:29.282Z,102305.87
2017-12-22T03:33:57.642Z,102304.89
2017-12-22T03:36:27.382Z,102306.03
2017-12-22T03:38:55.789Z,102299.80
2017-12-22T03:41:24.161Z,102295.25
2017-12-22T03:43:52.493Z,102294.77
2017-12-22T03:46:21.630Z,102301.34
2017-12-22T03:48:50.190Z,102307.63
2017-12-22T03:51:18.797Z,102299.66
2017-12-22T03:53:47.193Z,102305.80
2017-12-22T03:56:15.537Z,102297.90
2017-12-22T03:58:43.908Z,102298.03
2017-12-22T04:01:12.277Z,102307.23
2017-12-22T04:03:41.437Z,102306.88
2017-12-22T04:06:10.585Z,102309.22
2017-12-22T04:08:38.945Z,102316.91
2017-12-22T04:11:08.074Z,102311.15
2017-12-22T04:13:36.445Z,102313.16
2017-12-22T04:16:04.803Z,102312.65
2017-12-22T04:18:33.141Z,102303.92
2017-12-22T04:21:01.501Z,102307.89
2017-12-22T04:23:29.893Z,102311.31
2017-12-22T04:25:58.229Z,102308.58
2017-12-22T04:28:26.576Z,102318.41
2017-12-22T04:30:55.717Z,102313.62
2017-12-22T04:33:24.053Z,102316.53
2017-12-22T04:35:54.305Z,102316.31
2017-12-22T04:38:22.750Z,102319.72
2017-12-22T04:40:52.618Z,102312.34
2017-12-22T04:43:20.977Z,102319.24
2017-12-22T04:45:49.341Z,102327.20
2017-12-22T04:48:17.668Z,102327.25
2017-12-22T04:50:46.037Z,102322.31
2017-12-22T04:53:15.853Z,102322.06
2017-12-22T04:55:44.301Z,102323.08
2017-12-22T04:58:12.679Z,102322.77
2017-12-22T05:00:41.016Z,102316.45
2017-12-22T05:03:10.273Z,102315.38
2017-12-22T05:05:38.641Z,102317.04
2017-12-22T05:08:07.021Z,102322.77
2017-12-22T05:10:35.365Z,102324.41
2017-12-22T05:13:04.652Z,102320.05
2017-12-22T05:15:33.756Z,102325.89
2017-12-22T05:18:02.909Z,102323.23
2017-12-22T05:20:32.924Z,102325.89
2017-12-22T05:23:01.362Z,102334.60
2017-12-22T05:25:29.721Z,102337.67
2017-12-22T05:27:58.225Z,102340.38
2017-12-22T05:30:27.233Z,102344.69
2017-12-22T05:32:55.585Z,102337.79
2017-12-22T05:35:23.956Z,102334.20
2017-12-22T05:37:53.061Z,102335.58
2017-12-22T05:40:21.418Z,102332.72
2017-12-22T05:42:50.569Z,102330.60
2017-12-22T05:45:18.916Z,102335.56
2017-12-22T05:47:48.068Z,102334.13
2017-12-22T05:50:16.540Z,102341.55
2017-12-22T05:52:44.921Z,102350.00
2017-12-22T05:55:13.728Z,102346.23
2017-12-22T05:57:42.344Z,102353.02
2017-12-22T06:00:10.771Z,102352.14
2017-12-22T06:02:39.112Z,102351.09
2017-12-22T06:05:07.482Z,102355.95
2017-12-22T06:07:35.848Z,102355.86
2017-12-22T06:10:05.697Z,102363.44
2017-12-22T06:12:34.060Z,102364.63
2017-12-22T06:15:02.464Z,102367.64
2017-12-22T06:17:30.820Z,102361.30
2017-12-22T06:19:59.996Z,102360.93
2017-12-22T06:22:28.453Z,102364.84
2017-12-22T06:24:56.800Z,102362.61
2017-12-22T06:27:25.192Z,102368.86
2017-12-22T06:29:53.533Z,102364.84
2017-12-22T06:32:21.889Z,102368.66
2017-12-22T06:34:50.234Z,102365.73
2017-12-22T06:37:18.604Z,102367.64
2017-12-22T06:39:46.982Z,102369.78
2017-12-22T06:42:15.320Z,102369.70
2017-12-22T06:44:43.728Z,102375.03
2017-12-22T06:47:12.060Z,102378.09
2017-12-22T06:49:40.392Z,102382.80
2017-12-22T06:52:08.806Z,102382.80
2017-12-22T06:54:37.184Z,102381.13
2017-12-22T06:57:06.324Z,102379.72
2017-12-22T06:59:34.708Z,102376.39
2017-12-22T07:02:03.972Z,102369.92
2017-12-22T07:04:32.343Z,102379.14
2017-12-22T07:07:00.693Z,102379.99
2017-12-22T07:09:29.845Z,102382.25
2017-12-22T07:11:59.062Z,102380.84
2017-12-22T07:14:27.426Z,102382.39
2017-12-22T07:16:55.761Z,102380.13
2017-12-22T07:19:24.899Z,102383.16
2017-12-22T07:21:53.240Z,102381.95
2017-12-22T07:24:21.828Z,102388.04
2017-12-22T07:26:50.197Z,102390.72
2017-12-22T07:29:18.542Z,102395.31
2017-12-22T07:31:47.786Z,102390.58
2017-12-22T07:34:16.141Z,102394.41
2017-12-22T07:36:45.277Z,102393.11
2017-12-22T07:39:13.624Z,102395.84
2017-12-22T07:41:42.002Z,102394.50
2017-12-22T07:44:10.476Z,102391.12
2017-12-22T07:46:39.588Z,102388.95
2017-12-22T07:49:07.969Z,102393.87
2017-12-22T07:51:36.300Z,102389.19
2017-12-22T07:54:04.672Z,102387.05
2017-12-22T07:56:33.704Z,102380.61
2017-12-22T07:59:02.012Z,102379.37
2017-12-22T08:01:30.412Z,102381.69
2017-12-22T08:03:58.749Z,102375.27
2017-12-22T08:06:27.089Z,102379.28
2017-12-22T08:08:55.471Z,102372.84
2017-12-22T08:11:24.580Z,102369.41
2017-12-22T08:13:53.748Z,102363.83
2017-12-22T08:16:22.095Z,102360.73
2017-12-22T08:18:50.474Z,102366.50
2017-12-22T08:21:18.831Z,102362.94
2017-12-22T08:23:47.172Z,102366.92
2017-12-22T08:26:15.561Z,102362.17
2017-12-22T08:28:44.672Z,102362.43
2017-12-22T08:31:13.055Z,102367.38
2017-12-22T08:33:41.422Z,102377.16
2017-12-22T08:36:09.807Z,102374.42
2017-12-22T08:38:38.175Z,102373.27
2017-12-22T08:41:07.323Z,102381.23
2017-12-22T08:43:35.655Z,102379.06
2017-12-22T08:46:04.799Z,102376.66
2017-12-22T08:48:33.243Z,102371.05
2017-12-22T08:51:01.881Z,102376.44
2017-12-22T08:53:30.207Z,102375.95
2017-12-22T08:55:58.787Z,102379.30
2017-12-22T08:58:28.224Z,102375.76
2017-12-22T09:00:56.608Z,102374.85
2017-12-22T09:03:24.991Z,102372.63
2017-12-22T09:05:53.338Z,102372.70
2017-12-22T09:08:21.878Z,102366.25
2017-12-22T09:10:51.020Z,102373.09
2017-12-22T09:13:26.090Z,102374.73
2017-12-22T09:15:54.461Z,102376.95
2017-12-22T09:18:23.048Z,102373.58
2017-12-22T09:20:51.479Z,102383.86
2017-12-22T09:23:19.807Z,102375.27
2017-12-22T09:25:48.299Z,102372.60
2017-12-22T09:28:17.427Z,102372.03
2017-12-22T09:30:45.795Z,102373.55
2017-12-22T09:33:14.141Z,102373.83
2017-12-22T09:35:42.478Z,102368.48
2017-12-22T09:38:10.844Z,102370.64
2017-12-22T09:40:39.171Z,102373.69
2017-12-22T09:43:07.507Z,102362.74
2017-12-22T09:45:35.879Z,102369.06
2017-12-22T09:48:04.271Z,102368.54
2017-12-22T09:50:32.631Z,102369.27
2017-12-22T09:53:01.041Z,102363.94
2017-12-22T09:55:29.417Z,102364.03
2017-12-22T09:57:57.756Z,102370.40
2017-12-22T10:00:26.139Z,102374.98
2017-12-22T10:02:54.471Z,102373.97
2017-12-22T10:05:22.893Z,102367.94
2017-12-22T10:07:51.303Z,102373.58
2017-12-22T10:10:19.639Z,102373.54
2017-12-22T10:12:48.757Z,102371.86
2017-12-22T10:15:17.870Z,102377.44
2017-12-22T10:17:46.195Z,102368.11
2017-12-22T10:20:15.342Z,102371.16
2017-12-22T10:22:43.670Z,102361.91
2017-12-22T10:25:12.779Z,102352.33
2017-12-22T10:27:41.931Z,102343.70
2017-12-22T10:30:10.431Z,102340.19
2017-12-22T10:32:38.798Z,102340.69
2017-12-22T10:35:07.246Z,102327.52
2017-12-22T10:37:35.640Z,102325.75
2017-12-22T10:40:04.023Z,102319.61
2017-12-22T10:42:32.371Z,102326.62
2017-12-22T10:45:01.531Z,102334.11
2017-12-22T10:47:30.746Z,102335.28
2017-12-22T10:49:59.158Z,102333.91
2017-12-22T10:52:27.506Z,102331.16
2017-12-22T10:54:56.846Z,102336.89
2017-12-22T10:57:26.099Z,102335.64
2017-12-22T10:59:57.290Z,102341.80
2017-12-22T11:02:25.664Z,102335.03
2017-12-22T11:04:54.046Z,102324.43
2017-12-22T11:07:23.590Z,102328.80
2017-12-22T11:09:52.020Z,102327.80
2017-12-22T11:12:20.422Z,102335.21
2017-12-22T11:14:49.168Z,102341.28
2017-12-22T11:17:17.546Z,102337.01
2017-12-22T11:19:45.954Z,102321.60
2017-12-22T11:22:14.311Z,102322.98
2017-12-22T11:24:43.002Z,102244.16
2017-12-22T11:27:11.412Z,102300.35
2017-12-22T11:29:39.834Z,102289.72
2017-12-22T11:32:08.242Z,102292.69
2017-12-22T11:34:36.602Z,102292.64
2017-12-22T11:37:04.986Z,102296.17
2017-12-22T11:39:33.650Z,102289.69
2017-12-22T11:42:02.102Z,102287.26
2017-12-22T11:44:30.586Z,102289.09
2017-12-22T11:46:59.725Z,102292.78
2017-12-22T11:49:28.090Z,102309.94
2017-12-22T11:51:56.425Z,102311.82
2017-12-22T11:54:24.802Z,102316.66
2017-12-22T11:56:53.149Z,102304.27
2017-12-22T11:59:21.607Z,102305.11
2017-12-22T12:01:49.937Z,102300.05
2017-12-22T12:04:18.285Z,102297.89
2017-12-22T12:06:46.642Z,102312.05
2017-12-22T12:09:15.062Z,102319.23
2017-12-22T12:11:43.366Z,102332.48
2017-12-22T12:14:12.643Z,102324.36
2017-12-22T12:16:41.078Z,102314.52
2017-12-22T12:19:09.482Z,102307.37
2017-12-22T12:21:37.889Z,102307.31
2017-12-22T12:24:07.421Z,102299.39
2017-12-22T12:26:36.589Z,102289.41
2017-12-22T12:29:04.976Z,102290.72
2017-12-22T12:31:33.330Z,102291.52
2017-12-22T12:34:01.695Z,102286.23
2017-12-22T12:36:31.226Z,102290.49
2017-12-22T12:39:01.331Z,102291.73
2017-12-22T12:41:30.846Z,102286.12
2017-12-22T12:43:59.323Z,102298.75
2017-12-22T12:46:27.670Z,102289.80
2017-12-22T12:48:56.065Z,102277.85
2017-12-22T12:51:24.410Z,102272.22
2017-12-22T12:53:52.757Z,102262.99
2017-12-22T12:56:21.137Z,102263.45
2017-12-22T12:58:50.251Z,102258.08
2017-12-22T13:01:18.645Z,102264.67
2017-12-22T13:03:47.985Z,102254.93
2017-12-22T13:06:16.929Z,102247.46
2017-12-22T13:08:45.297Z,102241.89
2017-12-22T13:11:13.729Z,102248.98
2017-12-22T13:13:42.146Z,102241.55
2017-12-22T13:16:11.246Z,102254.72
2017-12-22T13:18:39.585Z,102257.31
2017-12-22T13:21:07.989Z,102255.11
2017-12-22T13:23:36.350Z,102253.83
2017-12-22T13:26:04.797Z,102253.08
2017-12-22T13:28:33.141Z,102249.98
2017-12-22T13:31:02.305Z,102247.30
2017-12-22T13:33:30.673Z,102245.98
2017-12-22T13:35:59.054Z,102245.55
2017-12-22T13:38:27.481Z,102248.78
2017-12-22T13:40:55.833Z,102255.34
2017-12-22T13:43:24.221Z,102253.06
2017-12-22T13:45:53.377Z,102254.43
2017-12-22T13:48:21.740Z,102242.98
2017-12-22T13:50:50.078Z,102244.73
2017-12-22T13:53:19.217Z,102245.55
2017-12-22T13:55:47.557Z,102236.27
2017-12-22T13:58:15.921Z,102255.54
2017-12-22T14:00:45.029Z,102251.09
2017-12-22T14:03:13.418Z,102245.29
2017-12-22T14:05:41.762Z,102238.97
2017-12-22T14:08:10.109Z,102232.64
2017-12-22T14:10:38.545Z,102243.44
2017-12-22T14:13:07.033Z,102238.39
2017-12-22T14:15:35.517Z,102243.72
2017-12-22T14:18:04.094Z,102240.47
2017-12-22T14:20:32.480Z,102241.59
2017-12-22T14:23:00.825Z,102247.52
2017-12-22T14:25:29.919Z,102254.36
2017-12-22T14:27:59.052Z,102258.81
2017-12-22T14:30:27.396Z,102267.95
2017-12-22T14:32:56.541Z,102267.55
2017-12-22T14:35:24.888Z,102272.98
2017-12-22T14:37:53.236Z,102279.34
2017-12-22T14:40:21.608Z,102274.53
2017-12-22T14:42:50.020Z,102285.33
2017-12-22T14:45:18.396Z,102295.25
2017-12-22T14:47:47.520Z,102292.51
2017-12-22T14:50:15.963Z,102290.58
2017-12-22T14:52:45.276Z,102299.59
2017-12-22T14:55:14.400Z,102297.83
2017-12-22T14:57:42.768Z,102292.01
2017-12-22T15:00:11.184Z,102295.84
2017-12-22T15:02:39.548Z,102303.71
2017-12-22T15:05:07.905Z,102300.80
2017-12-22T15:07:36.256Z,102302.54
2017-12-22T15:10:04.596Z,102303.09
2017-12-22T15:12:32.995Z,102298.70
2017-12-22T15:15:01.383Z,102297.59
2017-12-22T15:17:29.746Z,102294.94
2017-12-22T15:19:58.121Z,102296.59
2017-12-22T15:22:26.507Z,102298.75
2017-12-22T15:24:55.624Z,102301.00
2017-12-22T15:27:24.744Z,102297.32
2017-12-22T15:29:53.078Z,102296.23
2017-12-22T15:32:22.228Z,102293.46
2017-12-22T15:34:50.552Z,102299.36
2017-12-22T15:37:20.319Z,102303.64
2017-12-22T15:39:48.668Z,102304.62
2017-12-22T15:42:17.008Z,102313.51
2017-12-22T15:44:45.392Z,102310.05
2017-12-22T15:47:14.496Z,102312.04
2017-12-22T15:49:43.615Z,102319.39
2017-12-22T15:52:12.780Z,102324.36
2017-12-22T15:54:41.107Z,102326.52
2017-12-22T15:57:09.462Z,102318.98
2017-12-22T15:59:37.852Z,102316.77
2017-12-22T16:02:06.241Z,102326.62
2017-12-22T16:04:34.569Z,102339.42
2017-12-22T16:07:03.710Z,102345.67
2017-12-22T16:09:32.038Z,102356.34
2017-12-22T16:12:00.447Z,102363.38
2017-12-22T16:14:28.788Z,102366.55
2017-12-22T16:16:57.133Z,102371.64
2017-12-22T16:19:25.508Z,102371.30
2017-12-22T16:21:53.835Z,102373.94
2017-12-22T16:24:23.031Z,102378.73
2017-12-22T16:26:52.146Z,102383.20
2017-12-22T16:29:20.523Z,102384.66
2017-12-22T16:31:48.860Z,102389.48
2017-12-22T16:34:17.192Z,102394.03
2017-12-22T16:36:45.644Z,102396.68
2017-12-22T16:39:14.802Z,102397.27
2017-12-22T16:41:43.175Z,102402.66
2017-12-22T16:44:11.601Z,102397.40
2017-12-22T16:46:39.959Z,102399.91
2017-12-22T16:49:09.364Z,102407.05
2017-12-22T16:51:38.503Z,102401.25
2017-12-22T16:54:06.863Z,102399.93
2017-12-22T16:56:35.919Z,102410.63
2017-12-22T16:59:04.381Z,102408.63
2017-12-22T17:01:32.724Z,102410.41
2017-12-22T17:04:01.143Z,102409.84
2017-12-22T17:06:29.488Z,102406.45
2017-12-22T17:08:57.859Z,102415.08
2017-12-22T17:11:26.259Z,102420.09
2017-12-22T17:13:54.592Z,102423.21
2017-12-22T17:16:23.707Z,102418.42
2017-12-22T17:18:52.144Z,102414.95
2017-12-22T17:21:20.490Z,102421.92
2017-12-22T17:23:48.890Z,102422.30
2017-12-22T17:26:17.313Z,102420.23
2017-12-22T17:28:45.685Z,102429.87
2017-12-22T17:31:15.007Z,102433.42
2017-12-22T17:33:43.337Z,102422.81
2017-12-22T17:36:11.719Z,102423.78
2017-12-22T17:38:40.067Z,102434.34
2017-12-22T17:41:08.401Z,102435.24
2017-12-22T17:43:36.853Z,102436.92
2017-12-22T17:46:05.219Z,102438.78
2017-12-22T17:48:33.584Z,102434.02
2017-12-22T17:51:02.064Z,102434.44
2017-12-22T17:53:30.428Z,102433.00
2017-12-22T17:55:58.829Z,102433.45
2017-12-22T17:58:27.168Z,102430.19
2017-12-22T18:00:55.679Z,102433.80
2017-12-22T18:03:24.031Z,102430.61
2017-12-22T18:06:02.407Z,102430.25
2017-12-22T18:08:30.843Z,102432.50
2017-12-22T18:10:59.283Z,102432.53
2017-12-22T18:13:28.392Z,102438.81
2017-12-22T18:16:00.646Z,102448.45
2017-12-22T18:18:29.182Z,102451.59
2017-12-22T18:20:57.748Z,102472.70
2017-12-22T18:23:26.119Z,102449.82
2017-12-22T18:25:54.505Z,102448.77
2017-12-22T18:28:22.849Z,102452.03
2017-12-22T18:30:51.199Z,102462.24
2017-12-22T18:33:20.374Z,102457.50
2017-12-22T18:35:49.908Z,102449.50
2017-12-22T18:38:19.683Z,102451.14
2017-12-22T18:40:48.146Z,102451.55
2017-12-22T18:43:16.631Z,102452.27
2017-12-22T18:45:45.895Z,102451.99
2017-12-22T18:48:14.238Z,102455.89
2017-12-22T18:50:42.610Z,102452.84
2017-12-22T18:53:10.941Z,102448.70
2017-12-22T18:55:39.302Z,102454.83
2017-12-22T18:58:08.438Z,102460.70
2017-12-22T19:00:37.563Z,102461.20
2017-12-22T19:03:05.969Z,102472.55
2017-12-22T19:05:35.106Z,102470.42
2017-12-22T19:08:03.434Z,102477.76
2017-12-22T19:10:32.579Z,102473.98
2017-12-22T19:13:00.914Z,102485.97
2017-12-22T19:15:29.256Z,102487.27
2017-12-22T19:17:57.622Z,102484.02
2017-12-22T19:20:25.955Z,102473.72
2017-12-22T19:22:55.079Z,102470.41
2017-12-22T19:25:23.454Z,102469.59
2017-12-22T19:27:51.790Z,102478.30
2017-12-22T19:30:21.615Z,102479.60
2017-12-22T19:32:51.452Z,102479.84
2017-12-22T19:35:19.822Z,102477.55
2017-12-22T19:37:49.058Z,102476.77
2017-12-22T19:40:17.508Z,102481.51
2017-12-22T19:42:46.714Z,102478.77
2017-12-22T19:45:15.090Z,102484.00
2017-12-22T19:47:43.425Z,102485.41
2017-12-22T19:50:13.414Z,102493.59
2017-12-22T19:52:42.554Z,102487.37
2017-12-22T19:55:12.582Z,102489.55
2017-12-22T19:57:41.802Z,102484.09
2017-12-22T20:00:11.218Z,102494.05
2017-12-22T20:02:40.339Z,102502.86
2017-12-22T20:05:09.403Z,102512.47
2017-12-22T20:07:37.750Z,102509.02
2017-12-22T20:10:06.217Z,102513.73
2017-12-22T20:12:35.378Z,102515.31
2017-12-22T20:15:03.786Z,102511.16
2017-12-22T20:17:32.882Z,102516.75
2017-12-22T20:20:05.422Z,102515.05
2017-12-22T20:22:33.849Z,102512.47
2017-12-22T20:25:02.198Z,102515.55
2017-12-22T20:27:31.461Z,102517.47
2017-12-22T20:30:00.101Z,102519.70
2017-12-22T20:32:29.225Z,102515.09
2017-12-22T20:34:57.623Z,102511.53
2017-12-22T20:37:26.186Z,102512.72
2017-12-22T20:39:54.524Z,102510.20
2017-12-22T20:42:23.769Z,102507.75
2017-12-22T20:44:52.103Z,102503.97
2017-12-22T20:47:22.133Z,102494.09
2017-12-22T20:49:50.471Z,102490.20
2017-12-22T20:52:18.845Z,102493.55
2017-12-22T20:54:47.229Z,102490.43
2017-12-22T20:57:16.517Z,102487.61
2017-12-22T20:59:45.685Z,102491.34
2017-12-22T21:02:14.047Z,102486.79
2017-12-22T21:04:42.751Z,102482.98
2017-12-22T21:07:11.094Z,102485.86
2017-12-22T21:09:39.457Z,102485.12
2017-12-22T21:12:08.771Z,102494.97
2017-12-22T21:14:38.346Z,102499.88
2017-12-22T21:17:06.715Z,102503.48
2017-12-22T21:19:35.346Z,102503.48
2017-12-22T21:22:04.473Z,102495.83
2017-12-22T21:24:32.828Z,102497.91
2017-12-22T21:27:01.934Z,102501.69
2017-12-22T21:29:31.027Z,102502.52
2017-12-22T21:31:59.433Z,102501.95
2017-12-22T21:34:27.828Z,102506.09
2017-12-22T21:36:57.153Z,102499.73
2017-12-22T21:39:26.293Z,102500.05
2017-12-22T21:41:54.637Z,102494.17
2017-12-22T21:44:23.837Z,102491.73
2017-12-22T21:46:52.937Z,102484.97
2017-12-22T21:49:21.897Z,102482.11
2017-12-22T21:51:50.281Z,102481.00
2017-12-22T21:54:19.462Z,102480.63
2017-12-22T21:56:47.850Z,102484.26
2017-12-22T21:59:16.194Z,102484.25
2017-12-22T22:01:44.565Z,102483.47
2017-12-22T22:04:12.917Z,102484.28
2017-12-22T22:06:42.021Z,102490.81
2017-12-22T22:09:10.441Z,102497.15
2017-12-22T22:11:39.005Z,102491.45
2017-12-22T22:14:07.348Z,102481.52
2017-12-22T22:16:35.721Z,102477.45
2017-12-22T22:19:18.121Z,102471.48
2017-12-22T22:21:46.464Z,102471.13
2017-12-22T22:24:14.804Z,102464.40
2017-12-22T22:26:43.220Z,102465.38
2017-12-22T22:29:11.588Z,102464.01
2017-12-22T22:31:40.837Z,102469.09
2017-12-22T22:34:09.225Z,102468.62
2017-12-22T22:36:37.621Z,102475.27
2017-12-22T22:39:07.928Z,102478.33
2017-12-22T22:41:36.284Z,102477.59
2017-12-22T22:44:04.653Z,102478.47
2017-12-22T22:46:32.988Z,102474.70
2017-12-22T22:49:02.117Z,102473.73
2017-12-22T22:51:30.505Z,102475.36
2017-12-22T22:53:58.932Z,102475.62
2017-12-22T22:56:28.072Z,102475.20
2017-12-22T22:58:56.436Z,102468.27
2017-12-22T23:01:24.824Z,102463.96
2017-12-22T23:03:53.168Z,102458.52
2017-12-22T23:06:22.316Z,102457.91
2017-12-22T23:08:50.688Z,102450.17
2017-12-22T23:11:19.496Z,102448.98
2017-12-22T23:13:47.904Z,102444.64
2017-12-22T23:16:17.844Z,102446.27
2017-12-22T23:18:46.228Z,102443.37
2017-12-22T23:21:15.361Z,102444.30
2017-12-22T23:23:43.701Z,102431.69
2017-12-22T23:26:12.093Z,102425.77
2017-12-22T23:28:41.683Z,102427.08
2017-12-22T23:31:10.024Z,102431.54
2017-12-22T23:33:38.412Z,102428.42
2017-12-22T23:36:07.547Z,102419.89
2017-12-22T23:38:35.895Z,102428.57
2017-12-22T23:41:05.021Z,102421.62
2017-12-22T23:43:33.373Z,102421.70
2017-12-22T23:46:01.746Z,102416.00
2017-12-22T23:48:30.892Z,102420.78
2017-12-22T23:50:59.240Z,102410.51
2017-12-22T23:53:28.453Z,102408.13
2017-12-22T23:55:56.822Z,102398.55
2017-12-22T23:58:25.156Z,102399.63
